createdAt,value
2018-12-27T00:00:17.000Z,1033.08
2018-12-27T00:01:17.185Z,1033.08
2018-12-27T00:02:17.248Z,1033.11
2018-12-27T00:03:17.092Z,1033.11
2018-12-27T00:04:17.428Z,1033.11
2018-12-27T00:05:17.006Z,1033.13
2018-12-27T00:06:16.975Z,1033.15
2018-12-27T00:07:17.300Z,1033.12
2018-12-27T00:08:17.025Z,1033.14
2018-12-27T00:09:17.052Z,1033.11
2018-12-27T00:10:16.881Z,1033.14
2018-12-27T00:11:17.142Z,1033.14
2018-12-27T00:12:17.207Z,1033.14
2018-12-27T00:13:17.203Z,1033.12
2018-12-27T00:14:17.057Z,1033.14
2018-12-27T00:15:17.115Z,1033.14
2018-12-27T00:16:17.606Z,1033.13
2018-12-27T00:17:17.202Z,1033.13
2018-12-27T00:18:17.240Z,1033.12
2018-12-27T00:19:16.986Z,1033.14
2018-12-27T00:20:18.069Z,1033.09
2018-12-27T00:21:17.009Z,1033.1
2018-12-27T00:22:17.110Z,1033.11
2018-12-27T00:23:17.185Z,1033.1
2018-12-27T00:24:17.055Z,1033.12
2018-12-27T00:25:17.064Z,1033.15
2018-12-27T00:26:17.150Z,1033.11
2018-12-27T00:27:17.587Z,1033.17
2018-12-27T00:28:17.473Z,1033.13
2018-12-27T00:29:17.394Z,1033.16
2018-12-27T00:30:17.658Z,1033.13
2018-12-27T00:31:17.345Z,1033.16
2018-12-27T00:32:17.317Z,1033.14
2018-12-27T00:33:17.416Z,1033.1
2018-12-27T00:34:17.006Z,1033.15
2018-12-27T00:35:17.498Z,1033.14
2018-12-27T00:36:16.882Z,1033.13
2018-12-27T00:37:17.038Z,1033.13
2018-12-27T00:38:17.635Z,1033.09
2018-12-27T00:39:17.464Z,1033.1
2018-12-27T00:40:17.117Z,1033.05
2018-12-27T00:41:16.901Z,1033.04
2018-12-27T00:42:16.936Z,1033.09
2018-12-27T00:43:17.097Z,1033.04
2018-12-27T00:44:17.691Z,1033.03
2018-12-27T00:45:17.539Z,1033
2018-12-27T00:46:17.106Z,1033.03
2018-12-27T00:47:17.507Z,1033
2018-12-27T00:48:17.114Z,1033
2018-12-27T00:49:16.882Z,1032.97
2018-12-27T00:50:17.231Z,1032.92
2018-12-27T00:51:17.165Z,1032.89
2018-12-27T00:52:17.540Z,1032.93
2018-12-27T00:53:17.358Z,1032.89
2018-12-27T00:54:17.165Z,1032.89
2018-12-27T00:55:17.186Z,1032.85
2018-12-27T00:56:17.513Z,1032.82
2018-12-27T00:57:17.077Z,1032.81
2018-12-27T00:58:16.941Z,1032.78
2018-12-27T00:59:17.293Z,1032.76
2018-12-27T01:00:16.841Z,1032.75
2018-12-27T01:01:17.417Z,1032.76
2018-12-27T01:02:17.205Z,1032.73
2018-12-27T01:03:16.915Z,1032.72
2018-12-27T01:04:17.067Z,1032.72
2018-12-27T01:05:17.167Z,1032.75
2018-12-27T01:06:16.995Z,1032.76
2018-12-27T01:07:16.983Z,1032.76
2018-12-27T01:08:16.844Z,1032.73
2018-12-27T01:09:17.044Z,1032.76
2018-12-27T01:10:17.387Z,1032.73
2018-12-27T01:11:16.912Z,1032.71
2018-12-27T01:12:17.088Z,1032.71
2018-12-27T01:13:17.179Z,1032.69
2018-12-27T01:14:16.977Z,1032.68
2018-12-27T01:15:17.245Z,1032.69
2018-12-27T01:16:17.509Z,1032.65
2018-12-27T01:17:17.075Z,1032.65
2018-12-27T01:18:17.023Z,1032.64
2018-12-27T01:19:16.933Z,1032.68
2018-12-27T01:20:17.344Z,1032.69
2018-12-27T01:21:17.452Z,1032.71
2018-12-27T01:22:17.857Z,1032.74
2018-12-27T01:23:17.929Z,1032.72
2018-12-27T01:24:17.592Z,1032.75
2018-12-27T01:25:17.265Z,1032.75
2018-12-27T01:26:17.029Z,1032.76
2018-12-27T01:27:17.273Z,1032.73
2018-12-27T01:28:17.035Z,1032.74
2018-12-27T01:29:17.148Z,1032.76
2018-12-27T01:30:17.732Z,1032.79
2018-12-27T01:31:17.321Z,1032.78
2018-12-27T01:32:17.317Z,1032.78
2018-12-27T01:33:19.166Z,1032.77
2018-12-27T01:34:17.019Z,1032.78
2018-12-27T01:35:17.062Z,1032.76
2018-12-27T01:36:17.034Z,1032.76
2018-12-27T01:37:17.064Z,1032.72
2018-12-27T01:38:16.974Z,1032.75
2018-12-27T01:39:17.053Z,1032.75
2018-12-27T01:40:17.080Z,1032.74
2018-12-27T01:41:16.934Z,1032.75
2018-12-27T01:42:17.136Z,1032.69
2018-12-27T01:43:16.811Z,1032.71
2018-12-27T01:44:16.992Z,1032.71
2018-12-27T01:45:17.150Z,1032.61
2018-12-27T01:46:16.853Z,1032.59
2018-12-27T01:47:17.109Z,1032.59
2018-12-27T01:48:17.057Z,1032.57
2018-12-27T01:49:16.946Z,1032.54
2018-12-27T01:50:17.106Z,1032.54
2018-12-27T01:51:17.198Z,1032.51
2018-12-27T01:52:17.042Z,1032.49
2018-12-27T01:53:17.119Z,1032.55
2018-12-27T01:54:17.072Z,1032.51
2018-12-27T01:55:16.925Z,1032.48
2018-12-27T01:56:16.968Z,1032.49
2018-12-27T01:57:17.087Z,1032.49
2018-12-27T01:58:16.998Z,1032.52
2018-12-27T01:59:17.200Z,1032.48
2018-12-27T02:00:17.230Z,1032.49
2018-12-27T02:01:17.559Z,1032.45
2018-12-27T02:02:17.068Z,1032.48
2018-12-27T02:03:17.913Z,1032.47
2018-12-27T02:04:17.956Z,1032.44
2018-12-27T02:05:17.355Z,1032.41
2018-12-27T02:06:17.272Z,1032.43
2018-12-27T02:07:16.963Z,1032.4
2018-12-27T02:08:17.389Z,1032.38
2018-12-27T02:09:17.294Z,1032.4
2018-12-27T02:10:17.827Z,1032.43
2018-12-27T02:11:17.520Z,1032.42
2018-12-27T02:12:17.240Z,1032.42
2018-12-27T02:13:17.095Z,1032.49
2018-12-27T02:14:17.660Z,1032.48
2018-12-27T02:15:17.259Z,1032.49
2018-12-27T02:16:17.760Z,1032.5
2018-12-27T02:17:16.949Z,1032.48
2018-12-27T02:18:17.052Z,1032.46
2018-12-27T02:19:17.046Z,1032.53
2018-12-27T02:20:17.354Z,1032.43
2018-12-27T02:21:17.878Z,1032.44
2018-12-27T02:22:17.574Z,1032.46
2018-12-27T02:23:17.472Z,1032.4
2018-12-27T02:24:17.380Z,1032.44
2018-12-27T02:25:17.719Z,1032.47
2018-12-27T02:26:16.864Z,1032.46
2018-12-27T02:27:17.107Z,1032.46
2018-12-27T02:28:16.980Z,1032.46
2018-12-27T02:29:17.340Z,1032.44
2018-12-27T02:30:17.632Z,1032.41
2018-12-27T02:31:17.033Z,1032.4
2018-12-27T02:32:17.003Z,1032.42
2018-12-27T02:33:17.187Z,1032.37
2018-12-27T02:34:16.988Z,1032.34
2018-12-27T02:35:16.914Z,1032.38
2018-12-27T02:36:17.004Z,1032.39
2018-12-27T02:37:16.924Z,1032.36
2018-12-27T02:38:23.950Z,1032.37
2018-12-27T02:39:24.043Z,1032.39
2018-12-27T02:40:24.763Z,1032.4
2018-12-27T02:41:23.950Z,1032.41
2018-12-27T02:42:23.960Z,1032.41
2018-12-27T02:43:23.860Z,1032.38
2018-12-27T02:44:23.780Z,1032.39
2018-12-27T02:45:23.974Z,1032.36
2018-12-27T02:46:24.243Z,1032.33
2018-12-27T02:47:24.309Z,1032.33
2018-12-27T02:48:23.899Z,1032.33
2018-12-27T02:49:24.213Z,1032.34
2018-12-27T02:50:23.907Z,1032.34
2018-12-27T02:51:24.274Z,1032.34
2018-12-27T02:52:23.757Z,1032.36
2018-12-27T02:53:24.055Z,1032.4
2018-12-27T02:54:23.949Z,1032.38
2018-12-27T02:55:23.789Z,1032.39
2018-12-27T02:56:23.776Z,1032.42
2018-12-27T02:57:23.978Z,1032.4
2018-12-27T02:58:24.077Z,1032.35
2018-12-27T02:59:24.074Z,1032.33
2018-12-27T03:00:23.896Z,1032.31
2018-12-27T03:01:23.755Z,1032.29
2018-12-27T03:02:23.794Z,1032.27
2018-12-27T03:03:24.077Z,1032.24
2018-12-27T03:04:24.150Z,1032.25
2018-12-27T03:05:23.799Z,1032.21
2018-12-27T03:06:24.043Z,1032.24
2018-12-27T03:07:23.752Z,1032.2
2018-12-27T03:08:23.790Z,1032.21
2018-12-27T03:09:24.251Z,1032.21
2018-12-27T03:10:24.136Z,1032.19
2018-12-27T03:11:23.760Z,1032.19
2018-12-27T03:12:23.916Z,1032.12
2018-12-27T03:13:24.299Z,1032.12
2018-12-27T03:14:23.832Z,1032.1
2018-12-27T03:15:23.762Z,1032.08
2018-12-27T03:16:24.236Z,1032.06
2018-12-27T03:17:23.755Z,1032.05
2018-12-27T03:18:24.226Z,1032.06
2018-12-27T03:19:23.775Z,1032.02
2018-12-27T03:20:23.716Z,1032.03
2018-12-27T03:21:23.841Z,1031.99
2018-12-27T03:22:23.955Z,1031.99
2018-12-27T03:23:24.050Z,1032
2018-12-27T03:24:23.872Z,1031.99
2018-12-27T03:25:23.970Z,1032.04
2018-12-27T03:26:23.894Z,1032.05
2018-12-27T03:27:23.857Z,1032.04
2018-12-27T03:28:23.882Z,1032.04
2018-12-27T03:29:23.901Z,1032.05
2018-12-27T03:30:23.912Z,1032.06
2018-12-27T03:31:23.949Z,1032.06
2018-12-27T03:32:23.779Z,1032.03
2018-12-27T03:33:23.858Z,1031.99
2018-12-27T03:34:23.818Z,1032
2018-12-27T03:35:23.896Z,1031.97
2018-12-27T03:36:23.769Z,1031.99
2018-12-27T03:37:23.742Z,1031.96
2018-12-27T03:38:23.790Z,1031.93
2018-12-27T03:39:24.115Z,1031.96
2018-12-27T03:40:23.859Z,1031.97
2018-12-27T03:41:23.951Z,1031.94
2018-12-27T03:42:23.833Z,1031.91
2018-12-27T03:43:23.913Z,1031.9
2018-12-27T03:44:23.927Z,1031.93
2018-12-27T03:45:24.317Z,1031.89
2018-12-27T03:46:24.070Z,1031.84
2018-12-27T03:47:24.709Z,1031.82
2018-12-27T03:48:23.819Z,1031.8
2018-12-27T03:49:23.953Z,1031.8
2018-12-27T03:50:24.244Z,1031.76
2018-12-27T03:51:24.042Z,1031.74
2018-12-27T03:52:24.283Z,1031.72
2018-12-27T03:53:23.749Z,1031.69
2018-12-27T03:54:23.902Z,1031.68
2018-12-27T03:55:24.172Z,1031.71
2018-12-27T03:56:23.852Z,1031.69
2018-12-27T03:57:24.665Z,1031.65
2018-12-27T03:58:23.848Z,1031.64
2018-12-27T03:59:23.760Z,1031.64
2018-12-27T04:00:24.114Z,1031.62
2018-12-27T04:01:23.872Z,1031.59
2018-12-27T04:02:24.021Z,1031.59
2018-12-27T04:03:23.819Z,1031.59
2018-12-27T04:04:23.949Z,1031.6
2018-12-27T04:05:23.756Z,1031.57
2018-12-27T04:06:23.945Z,1031.58
2018-12-27T04:07:23.863Z,1031.54
2018-12-27T04:08:24.077Z,1031.56
2018-12-27T04:09:24.667Z,1031.52
2018-12-27T04:10:23.802Z,1031.55
2018-12-27T04:11:24.282Z,1031.51
2018-12-27T04:12:23.746Z,1031.52
2018-12-27T04:13:24.429Z,1031.54
2018-12-27T04:14:24.698Z,1031.48
2018-12-27T04:15:23.796Z,1031.49
2018-12-27T04:16:23.759Z,1031.52
2018-12-27T04:17:24.136Z,1031.5
2018-12-27T04:18:24.953Z,1031.48
2018-12-27T04:19:23.831Z,1031.52
2018-12-27T04:20:24.049Z,1031.52
2018-12-27T04:21:23.952Z,1031.57
2018-12-27T04:22:23.752Z,1031.6
2018-12-27T04:23:24.204Z,1031.61
2018-12-27T04:24:23.744Z,1031.61
2018-12-27T04:25:23.718Z,1031.66
2018-12-27T04:26:23.886Z,1031.65
2018-12-27T04:27:23.735Z,1031.6
2018-12-27T04:28:23.767Z,1031.56
2018-12-27T04:29:23.762Z,1031.57
2018-12-27T04:30:23.722Z,1031.56
2018-12-27T04:31:24.291Z,1031.53
2018-12-27T04:32:23.722Z,1031.56
2018-12-27T04:33:23.888Z,1031.59
2018-12-27T04:34:23.926Z,1031.6
2018-12-27T04:35:23.989Z,1031.61
2018-12-27T04:36:24.190Z,1031.61
2018-12-27T04:37:23.861Z,1031.59
2018-12-27T04:38:23.865Z,1031.55
2018-12-27T04:39:23.938Z,1031.52
2018-12-27T04:40:23.747Z,1031.5
2018-12-27T04:41:24.037Z,1031.46
2018-12-27T04:42:23.742Z,1031.46
2018-12-27T04:43:23.836Z,1031.39
2018-12-27T04:44:24.130Z,1031.35
2018-12-27T04:45:23.845Z,1031.33
2018-12-27T04:46:23.765Z,1031.3
2018-12-27T04:47:24.056Z,1031.28
2018-12-27T04:48:23.719Z,1031.29
2018-12-27T04:49:23.615Z,1031.31
2018-12-27T04:50:23.854Z,1031.37
2018-12-27T04:51:24.058Z,1031.4
2018-12-27T04:52:23.843Z,1031.41
2018-12-27T04:53:23.965Z,1031.33
2018-12-27T04:54:24.188Z,1031.29
2018-12-27T04:55:23.702Z,1031.25
2018-12-27T04:56:23.707Z,1031.23
2018-12-27T04:57:23.718Z,1031.23
2018-12-27T04:58:23.818Z,1031.31
2018-12-27T04:59:23.863Z,1031.34
2018-12-27T05:00:24.044Z,1031.37
2018-12-27T05:01:23.746Z,1031.34
2018-12-27T05:02:23.900Z,1031.32
2018-12-27T05:03:23.878Z,1031.31
2018-12-27T05:04:23.844Z,1031.27
2018-12-27T05:05:24.232Z,1031.26
2018-12-27T05:06:23.702Z,1031.33
2018-12-27T05:07:23.687Z,1031.34
2018-12-27T05:08:24.014Z,1031.28
2018-12-27T05:09:23.709Z,1031.29
2018-12-27T05:10:24.449Z,1031.25
2018-12-27T05:11:23.798Z,1031.2
2018-12-27T05:12:23.833Z,1031.17
2018-12-27T05:13:23.878Z,1031.19
2018-12-27T05:14:23.803Z,1031.24
2018-12-27T05:15:23.870Z,1031.31
2018-12-27T05:16:24.155Z,1031.36
2018-12-27T05:17:24.246Z,1031.39
2018-12-27T05:18:23.913Z,1031.4
2018-12-27T05:19:23.752Z,1031.38
2018-12-27T05:20:23.889Z,1031.38
2018-12-27T05:21:23.878Z,1031.4
2018-12-27T05:22:23.887Z,1031.44
2018-12-27T05:23:23.775Z,1031.49
2018-12-27T05:24:24.107Z,1031.56
2018-12-27T05:25:23.691Z,1031.58
2018-12-27T05:26:23.702Z,1031.59
2018-12-27T05:27:24.535Z,1031.62
2018-12-27T05:28:23.839Z,1031.66
2018-12-27T05:29:23.743Z,1031.69
2018-12-27T05:30:23.969Z,1031.72
2018-12-27T05:31:23.769Z,1031.74
2018-12-27T05:32:23.847Z,1031.76
2018-12-27T05:33:23.818Z,1031.74
2018-12-27T05:34:26.770Z,1031.73
2018-12-27T05:35:23.791Z,1031.71
2018-12-27T05:36:24.072Z,1031.74
2018-12-27T05:37:23.681Z,1031.73
2018-12-27T05:38:24.003Z,1031.77
2018-12-27T05:39:24.024Z,1031.76
2018-12-27T05:40:23.706Z,1031.76
2018-12-27T05:41:24.230Z,1031.75
2018-12-27T05:42:23.762Z,1031.73
2018-12-27T05:43:23.893Z,1031.69
2018-12-27T05:44:23.847Z,1031.68
2018-12-27T05:45:23.830Z,1031.7
2018-12-27T05:46:24.053Z,1031.69
2018-12-27T05:47:23.720Z,1031.69
2018-12-27T05:48:24.056Z,1031.68
2018-12-27T05:49:23.863Z,1031.64
2018-12-27T05:50:23.998Z,1031.64
2018-12-27T05:51:24.623Z,1031.58
2018-12-27T05:52:23.997Z,1031.61
2018-12-27T05:53:23.997Z,1031.6
2018-12-27T05:54:24.024Z,1031.61
2018-12-27T05:55:24.371Z,1031.65
2018-12-27T05:56:23.697Z,1031.64
2018-12-27T05:57:24.026Z,1031.61
2018-12-27T05:58:23.981Z,1031.62
2018-12-27T05:59:23.945Z,1031.57
2018-12-27T06:00:23.961Z,1031.58
2018-12-27T06:01:23.691Z,1031.59
2018-12-27T06:02:23.755Z,1031.58
2018-12-27T06:03:23.685Z,1031.54
2018-12-27T06:04:23.813Z,1031.55
2018-12-27T06:05:24.204Z,1031.53
2018-12-27T06:06:23.698Z,1031.5
2018-12-27T06:07:23.912Z,1031.45
2018-12-27T06:08:23.694Z,1031.47
2018-12-27T06:09:23.715Z,1031.48
2018-12-27T06:10:23.754Z,1031.48
2018-12-27T06:11:24.615Z,1031.49
2018-12-27T06:12:24.028Z,1031.49
2018-12-27T06:13:23.942Z,1031.44
2018-12-27T06:14:23.934Z,1031.44
2018-12-27T06:15:24.276Z,1031.44
2018-12-27T06:16:23.693Z,1031.48
2018-12-27T06:17:23.959Z,1031.51
2018-12-27T06:18:23.736Z,1031.48
2018-12-27T06:19:24.655Z,1031.52
2018-12-27T06:20:23.717Z,1031.52
2018-12-27T06:21:23.682Z,1031.53
2018-12-27T06:22:23.980Z,1031.54
2018-12-27T06:23:23.796Z,1031.48
2018-12-27T06:24:23.825Z,1031.5
2018-12-27T06:25:24.023Z,1031.49
2018-12-27T06:26:23.932Z,1031.45
2018-12-27T06:27:23.808Z,1031.46
2018-12-27T06:28:23.819Z,1031.43
2018-12-27T06:29:23.807Z,1031.4
2018-12-27T06:30:23.844Z,1031.45
2018-12-27T06:31:23.650Z,1031.42
2018-12-27T06:32:23.733Z,1031.43
2018-12-27T06:33:24.172Z,1031.39
2018-12-27T06:34:23.668Z,1031.38
2018-12-27T06:35:23.660Z,1031.36
2018-12-27T06:36:23.934Z,1031.37
2018-12-27T06:37:23.667Z,1031.37
2018-12-27T06:38:23.699Z,1031.35
2018-12-27T06:39:24.026Z,1031.33
2018-12-27T06:40:24.158Z,1031.33
2018-12-27T06:41:23.838Z,1031.35
2018-12-27T06:42:23.692Z,1031.37
2018-12-27T06:43:24.059Z,1031.41
2018-12-27T06:44:23.682Z,1031.44
2018-12-27T06:45:23.768Z,1031.45
2018-12-27T06:46:23.704Z,1031.48
2018-12-27T06:47:23.792Z,1031.44
2018-12-27T06:48:23.826Z,1031.48
2018-12-27T06:49:23.806Z,1031.47
2018-12-27T06:50:23.825Z,1031.43
2018-12-27T06:51:24.217Z,1031.43
2018-12-27T06:52:23.894Z,1031.38
2018-12-27T06:53:23.680Z,1031.38
2018-12-27T06:54:23.820Z,1031.39
2018-12-27T06:55:23.843Z,1031.42
2018-12-27T06:56:23.918Z,1031.4
2018-12-27T06:57:24.302Z,1031.47
2018-12-27T06:58:23.933Z,1031.45
2018-12-27T06:59:23.895Z,1031.41
2018-12-27T07:00:24.064Z,1031.46
2018-12-27T07:01:23.623Z,1031.45
2018-12-27T07:02:23.664Z,1031.47
2018-12-27T07:03:23.937Z,1031.49
2018-12-27T07:04:24.613Z,1031.49
2018-12-27T07:05:23.749Z,1031.55
2018-12-27T07:06:23.843Z,1031.53
2018-12-27T07:07:24.187Z,1031.51
2018-12-27T07:08:24.144Z,1031.52
2018-12-27T07:09:23.762Z,1031.53
2018-12-27T07:10:24.015Z,1031.46
2018-12-27T07:11:23.638Z,1031.49
2018-12-27T07:12:23.850Z,1031.48
2018-12-27T07:13:24.073Z,1031.44
2018-12-27T07:14:24.060Z,1031.43
2018-12-27T07:15:23.815Z,1031.39
2018-12-27T07:16:23.713Z,1031.41
2018-12-27T07:17:23.779Z,1031.41
2018-12-27T07:18:24.601Z,1031.41
2018-12-27T07:19:24.052Z,1031.42
2018-12-27T07:20:23.692Z,1031.39
2018-12-27T07:21:23.565Z,1031.37
2018-12-27T07:22:23.676Z,1031.4
2018-12-27T07:23:23.667Z,1031.38
2018-12-27T07:24:23.741Z,1031.45
2018-12-27T07:25:24.114Z,1031.42
2018-12-27T07:26:23.662Z,1031.4
2018-12-27T07:27:24.357Z,1031.43
2018-12-27T07:28:23.991Z,1031.38
2018-12-27T07:29:24.171Z,1031.35
2018-12-27T07:30:23.786Z,1031.36
2018-12-27T07:31:23.667Z,1031.34
2018-12-27T07:32:23.781Z,1031.34
2018-12-27T07:33:24.274Z,1031.35
2018-12-27T07:34:23.702Z,1031.33
2018-12-27T07:35:23.953Z,1031.36
2018-12-27T07:36:24.230Z,1031.37
2018-12-27T07:37:23.912Z,1031.36
2018-12-27T07:38:23.756Z,1031.37
2018-12-27T07:39:23.903Z,1031.34
2018-12-27T07:40:23.788Z,1031.35
2018-12-27T07:41:23.877Z,1031.33
2018-12-27T07:42:23.585Z,1031.33
2018-12-27T07:43:24.194Z,1031.36
2018-12-27T07:44:23.992Z,1031.37
2018-12-27T07:45:23.816Z,1031.35
2018-12-27T07:46:23.688Z,1031.34
2018-12-27T07:47:24.092Z,1031.34
2018-12-27T07:48:23.946Z,1031.34
2018-12-27T07:49:23.715Z,1031.32
2018-12-27T07:50:23.836Z,1031.32
2018-12-27T07:51:23.921Z,1031.33
2018-12-27T07:52:23.559Z,1031.36
2018-12-27T07:53:23.750Z,1031.34
2018-12-27T07:54:23.957Z,1031.33
2018-12-27T07:55:23.768Z,1031.34
2018-12-27T07:56:23.539Z,1031.36
2018-12-27T07:57:23.697Z,1031.39
2018-12-27T07:58:23.694Z,1031.4
2018-12-27T07:59:23.657Z,1031.36
2018-12-27T08:00:24.586Z,1031.36
2018-12-27T08:01:23.956Z,1031.37
2018-12-27T08:02:24.577Z,1031.37
2018-12-27T08:03:24.010Z,1031.37
2018-12-27T08:04:23.654Z,1031.4
2018-12-27T08:05:23.692Z,1031.41
2018-12-27T08:06:23.659Z,1031.37
2018-12-27T08:07:23.931Z,1031.37
2018-12-27T08:08:23.655Z,1031.31
2018-12-27T08:09:23.661Z,1031.32
2018-12-27T08:10:23.770Z,1031.3
2018-12-27T08:11:23.750Z,1031.31
2018-12-27T08:12:24.180Z,1031.3
2018-12-27T08:13:23.814Z,1031.32
2018-12-27T08:14:24.183Z,1031.32
2018-12-27T08:15:24.007Z,1031.33
2018-12-27T08:16:23.834Z,1031.31
2018-12-27T08:17:23.709Z,1031.33
2018-12-27T08:18:23.691Z,1031.33
2018-12-27T08:19:23.912Z,1031.35
2018-12-27T08:20:23.768Z,1031.37
2018-12-27T08:21:24.047Z,1031.42
2018-12-27T08:22:23.736Z,1031.38
2018-12-27T08:23:23.787Z,1031.38
2018-12-27T08:24:23.774Z,1031.4
2018-12-27T08:25:23.710Z,1031.44
2018-12-27T08:26:23.719Z,1031.42
2018-12-27T08:27:23.872Z,1031.46
2018-12-27T08:28:23.969Z,1031.43
2018-12-27T08:29:23.906Z,1031.43
2018-12-27T08:30:23.683Z,1031.44
2018-12-27T08:31:23.655Z,1031.41
2018-12-27T08:32:23.629Z,1031.46
2018-12-27T08:33:23.654Z,1031.45
2018-12-27T08:34:23.713Z,1031.44
2018-12-27T08:35:23.926Z,1031.41
2018-12-27T08:36:23.777Z,1031.4
2018-12-27T08:37:23.989Z,1031.39
2018-12-27T08:38:23.638Z,1031.44
2018-12-27T08:39:23.781Z,1031.43
2018-12-27T08:40:23.939Z,1031.46
2018-12-27T08:41:23.888Z,1031.43
2018-12-27T08:42:23.870Z,1031.43
2018-12-27T08:43:23.908Z,1031.41
2018-12-27T08:44:24.016Z,1031.47
2018-12-27T08:45:24.548Z,1031.46
2018-12-27T08:46:23.926Z,1031.45
2018-12-27T08:47:23.631Z,1031.46
2018-12-27T08:48:23.936Z,1031.44
2018-12-27T08:49:24.004Z,1031.42
2018-12-27T08:50:23.750Z,1031.44
2018-12-27T08:51:23.852Z,1031.45
2018-12-27T08:52:23.656Z,1031.44
2018-12-27T08:53:23.754Z,1031.42
2018-12-27T08:54:24.116Z,1031.42
2018-12-27T08:55:23.850Z,1031.44
2018-12-27T08:56:23.973Z,1031.42
2018-12-27T08:57:24.535Z,1031.39
2018-12-27T08:58:23.680Z,1031.4
2018-12-27T08:59:23.910Z,1031.41
2018-12-27T09:00:24.009Z,1031.45
2018-12-27T09:01:23.879Z,1031.46
2018-12-27T09:02:23.769Z,1031.46
2018-12-27T09:03:23.697Z,1031.48
2018-12-27T09:04:23.638Z,1031.45
2018-12-27T09:05:23.972Z,1031.5
2018-12-27T09:06:23.760Z,1031.48
2018-12-27T09:07:23.802Z,1031.47
2018-12-27T09:08:23.791Z,1031.47
2018-12-27T09:09:24.143Z,1031.46
2018-12-27T09:10:23.786Z,1031.49
2018-12-27T09:11:23.642Z,1031.47
2018-12-27T09:12:23.629Z,1031.49
2018-12-27T09:13:24.536Z,1031.51
2018-12-27T09:14:23.871Z,1031.5
2018-12-27T09:15:23.721Z,1031.5
2018-12-27T09:16:23.604Z,1031.47
2018-12-27T09:17:24.225Z,1031.49
2018-12-27T09:18:24.521Z,1031.47
2018-12-27T09:19:23.636Z,1031.51
2018-12-27T09:20:23.808Z,1031.48
2018-12-27T09:21:23.841Z,1031.49
2018-12-27T09:22:23.984Z,1031.44
2018-12-27T09:23:23.965Z,1031.44
2018-12-27T09:24:23.976Z,1031.45
2018-12-27T09:25:23.971Z,1031.46
2018-12-27T09:26:24.347Z,1031.46
2018-12-27T09:27:23.620Z,1031.44
2018-12-27T09:28:23.658Z,1031.48
2018-12-27T09:29:23.812Z,1031.5
2018-12-27T09:30:23.725Z,1031.45
2018-12-27T09:31:23.628Z,1031.44
2018-12-27T09:32:24.044Z,1031.41
2018-12-27T09:33:24.290Z,1031.44
2018-12-27T09:34:23.963Z,1031.42
2018-12-27T09:35:26.765Z,1031.39
2018-12-27T09:36:23.723Z,1031.39
2018-12-27T09:37:23.876Z,1031.42
2018-12-27T09:38:24.179Z,1031.43
2018-12-27T09:39:23.722Z,1031.4
2018-12-27T09:40:23.676Z,1031.43
2018-12-27T09:41:23.619Z,1031.42
2018-12-27T09:42:24.321Z,1031.41
2018-12-27T09:43:23.994Z,1031.42
2018-12-27T09:44:23.710Z,1031.42
2018-12-27T09:45:23.766Z,1031.43
2018-12-27T09:46:23.792Z,1031.45
2018-12-27T09:47:23.654Z,1031.42
2018-12-27T09:48:23.686Z,1031.47
2018-12-27T09:49:23.977Z,1031.41
2018-12-27T09:50:23.612Z,1031.43
2018-12-27T09:51:23.730Z,1031.42
2018-12-27T09:52:23.677Z,1031.42
2018-12-27T09:53:23.615Z,1031.39
2018-12-27T09:54:23.783Z,1031.43
2018-12-27T09:55:23.515Z,1031.43
2018-12-27T09:56:23.818Z,1031.42
2018-12-27T09:57:23.910Z,1031.39
2018-12-27T09:58:23.908Z,1031.41
2018-12-27T09:59:23.756Z,1031.4
2018-12-27T10:00:23.736Z,1031.45
2018-12-27T10:01:23.870Z,1031.43
2018-12-27T10:02:23.598Z,1031.4
2018-12-27T10:03:23.740Z,1031.4
2018-12-27T10:04:23.647Z,1031.36
2018-12-27T10:05:23.734Z,1031.35
2018-12-27T10:06:23.794Z,1031.33
2018-12-27T10:07:23.591Z,1031.28
2018-12-27T10:08:23.805Z,1031.29
2018-12-27T10:09:24.099Z,1031.23
2018-12-27T10:10:23.734Z,1031.23
2018-12-27T10:11:24.103Z,1031.22
2018-12-27T10:12:23.935Z,1031.21
2018-12-27T10:13:23.607Z,1031.21
2018-12-27T10:14:23.647Z,1031.2
2018-12-27T10:15:23.787Z,1031.2
2018-12-27T10:16:23.940Z,1031.24
2018-12-27T10:17:23.744Z,1031.21
2018-12-27T10:18:23.970Z,1031.23
2018-12-27T10:19:23.882Z,1031.23
2018-12-27T10:20:23.750Z,1031.2
2018-12-27T10:21:23.931Z,1031.21
2018-12-27T10:22:23.632Z,1031.2
2018-12-27T10:23:23.871Z,1031.23
2018-12-27T10:24:23.586Z,1031.2
2018-12-27T10:25:23.610Z,1031.24
2018-12-27T10:26:23.901Z,1031.19
2018-12-27T10:27:23.696Z,1031.24
2018-12-27T10:28:23.603Z,1031.2
2018-12-27T10:29:23.837Z,1031.17
2018-12-27T10:30:23.729Z,1031.21
2018-12-27T10:31:23.763Z,1031.2
2018-12-27T10:32:16.271Z,1031.15
2018-12-27T10:33:15.770Z,1031.16
2018-12-27T10:34:15.859Z,1031.14
2018-12-27T10:35:15.854Z,1031.12
2018-12-27T10:36:15.842Z,1031.09
2018-12-27T10:37:16.247Z,1031.12
2018-12-27T10:38:15.896Z,1031.09
2018-12-27T10:39:16.212Z,1031.09
2018-12-27T10:40:16.561Z,1031.09
2018-12-27T10:41:16.334Z,1031.03
2018-12-27T10:42:16.548Z,1031.02
2018-12-27T10:43:15.675Z,1031.01
2018-12-27T10:44:16.142Z,1031.01
2018-12-27T10:45:15.801Z,1031.02
2018-12-27T10:46:15.756Z,1031.01
2018-12-27T10:47:15.927Z,1030.97
2018-12-27T10:48:16.291Z,1030.98
2018-12-27T10:49:16.246Z,1031.01
2018-12-27T10:50:16.219Z,1030.98
2018-12-27T10:51:15.941Z,1030.95
2018-12-27T10:52:15.696Z,1030.92
2018-12-27T10:53:15.997Z,1030.94
2018-12-27T10:54:15.703Z,1030.93
2018-12-27T10:55:15.888Z,1030.9
2018-12-27T10:56:15.713Z,1030.89
2018-12-27T10:57:15.836Z,1030.89
2018-12-27T10:58:15.886Z,1030.92
2018-12-27T10:59:15.670Z,1030.88
2018-12-27T11:00:16.061Z,1030.86
2018-12-27T11:01:15.610Z,1030.83
2018-12-27T11:02:15.688Z,1030.8
2018-12-27T11:03:15.963Z,1030.76
2018-12-27T11:04:15.651Z,1030.74
2018-12-27T11:05:15.669Z,1030.68
2018-12-27T11:06:15.635Z,1030.64
2018-12-27T11:07:15.928Z,1030.63
2018-12-27T11:08:15.907Z,1030.58
2018-12-27T11:09:15.642Z,1030.57
2018-12-27T11:10:16.050Z,1030.59
2018-12-27T11:11:15.859Z,1030.54
2018-12-27T11:12:15.884Z,1030.49
2018-12-27T11:13:16.147Z,1030.48
2018-12-27T11:14:16.282Z,1030.46
2018-12-27T11:15:15.991Z,1030.43
2018-12-27T11:16:15.678Z,1030.43
2018-12-27T11:17:42.593Z,1030.39
2018-12-27T11:18:42.269Z,1030.4
2018-12-27T11:19:42.299Z,1030.36
2018-12-27T11:21:15.420Z,1030.33
2018-12-27T11:22:15.471Z,1030.34
2018-12-27T11:23:15.384Z,1030.32
2018-12-27T11:24:15.605Z,1030.27
2018-12-27T11:25:15.894Z,1030.26
2018-12-27T11:26:15.389Z,1030.26
2018-12-27T11:27:12.059Z,1030.23
2018-12-27T11:28:12.804Z,1030.26
2018-12-27T11:29:11.938Z,1030.22
2018-12-27T11:30:44.317Z,1030.28
2018-12-27T11:31:44.338Z,1030.27
2018-12-27T11:32:40.629Z,1030.23
2018-12-27T11:33:40.261Z,1030.28
2018-12-27T11:34:40.515Z,1030.27
2018-12-27T11:35:40.499Z,1030.29
2018-12-27T11:36:40.663Z,1030.25
2018-12-27T11:37:40.560Z,1030.26
2018-12-27T11:38:37.107Z,1030.24
2018-12-27T11:39:37.099Z,1030.2
2018-12-27T11:40:36.721Z,1030.19
2018-12-27T11:41:36.758Z,1030.17
2018-12-27T11:42:37.025Z,1030.18
2018-12-27T11:43:37.478Z,1030.17
2018-12-27T11:44:36.855Z,1030.11
2018-12-27T11:45:36.542Z,1030.16
2018-12-27T11:46:37.553Z,1030.12
2018-12-27T11:47:16.206Z,1030.1
2018-12-27T11:48:16.664Z,1030.08
2018-12-27T11:49:15.913Z,1030.07
2018-12-27T11:50:06.807Z,1030.03
2018-12-27T11:51:06.943Z,1030.02
2018-12-27T11:52:06.841Z,1030.02
2018-12-27T11:53:06.686Z,1030
2018-12-27T11:54:06.828Z,1030.01
2018-12-27T11:55:06.642Z,1029.99
2018-12-27T11:56:06.914Z,1030.01
2018-12-27T11:57:06.894Z,1029.98
2018-12-27T11:58:07.017Z,1029.98
2018-12-27T11:59:07.005Z,1029.96
2018-12-27T12:00:07.000Z,1029.94
2018-12-27T12:01:06.749Z,1029.93
2018-12-27T12:02:06.806Z,1029.91
2018-12-27T12:03:07.054Z,1029.9
2018-12-27T12:04:06.743Z,1029.91
2018-12-27T12:05:06.668Z,1029.9
2018-12-27T12:06:07.170Z,1029.87
2018-12-27T12:07:06.725Z,1029.89
2018-12-27T12:08:07.095Z,1029.87
2018-12-27T12:09:06.958Z,1029.88